Terminal Aerodrome Forecast
Issued by NWS Twin Cities, MN

Home | Current Version | Previous Version | Graphics & Text | Print | Product List | Glossary On
Versions: 1 2 3 4 5 6 7 8 9 10 11 12 13 14 15 16 17 18 19 20 21 22 23 24 25 26
233
FTUS43 KMPX 242153 AAA
TAFSTC
TAF AMD
KSTC 242153Z 2422/2518 VRB06KT P6SM BKN050
     FM242300 22007KT P6SM VCSH SCT035 BKN080
      TEMPO 2500/2501 5SM -TSRA BKN040CB OVC080
     FM250100 12003KT P6SM BKN200
     FM251500 13009KT 5SM -SHRA BR OVC050=

USA.gov is the U.S. government's official web portal to all federal, state and local government web resources and services.